Time;durP1;ratioP1;P1;durP2;ratioP2;P2;SDS_P1;SDS_P2;PMS_P1;PMS_P2;Temp;Humidity;BMP_temperature;BMP_pressure;BME280_temperature;BME280_humidity;BME280_pressure;Samples;Min_cycle;Max_cycle;Signal;HPM_P1;HPM_P2
2021/09/28 00:00:35;;;;;;;8.47;4.03;;;;;;;;;;5067799;28;20260;-75
2021/09/28 00:03:02;;;;;;;7.60;3.70;;;;;;;;;;5067513;28;20271;-75
2021/09/28 00:05:30;;;;;;;8.27;4.33;;;;;;;;;;5067123;28;20213;-75
2021/09/28 00:07:56;;;;;;;7.97;3.87;;;;;;;;;;5067145;28;20217;-75
2021/09/28 00:10:23;;;;;;;12.67;3.90;;;;;;;;;;5066719;28;20206;-74
2021/09/28 00:12:50;;;;;;;8.77;4.03;;;;;;;;;;5067239;28;20237;-75
2021/09/28 00:15:17;;;;;;;12.57;4.17;;;;;;;;;;5067512;28;20220;-75
2021/09/28 00:17:44;;;;;;;9.47;4.13;;;;;;;;;;5067113;28;20290;-75
2021/09/28 00:20:13;;;;;;;8.90;3.97;;;;;;;;;;5067319;28;21180;-75
2021/09/28 00:22:41;;;;;;;10.33;4.33;;;;;;;;;;5067854;28;20217;-75
2021/09/28 00:25:09;;;;;;;9.23;4.20;;;;;;;;;;5067093;28;20540;-75
2021/09/28 00:27:36;;;;;;;11.40;4.50;;;;;;;;;;5067265;28;20267;-75
2021/09/28 00:30:03;;;;;;;12.47;4.77;;;;;;;;;;5066836;28;20271;-75
2021/09/28 00:32:30;;;;;;;9.87;4.60;;;;;;;;;;5067804;28;20717;-75
2021/09/28 00:34:56;;;;;;;10.10;4.37;;;;;;;;;;5066914;28;20229;-75
2021/09/28 00:37:23;;;;;;;10.27;4.80;;;;;;;;;;5067370;28;20221;-75
2021/09/28 00:39:50;;;;;;;12.13;4.77;;;;;;;;;;5067417;28;20221;-75
2021/09/28 00:42:17;;;;;;;11.60;4.60;;;;;;;;;;5066579;28;20260;-75
2021/09/28 00:44:44;;;;;;;10.97;4.53;;;;;;;;;;5067093;28;20684;-75
2021/09/28 00:47:13;;;;;;;9.13;4.37;;;;;;;;;;5067305;28;20284;-74
2021/09/28 00:49:40;;;;;;;11.90;5.37;;;;;;;;;;5067387;28;20236;-75
2021/09/28 00:52:07;;;;;;;10.87;5.67;;;;;;;;;;5067163;28;21152;-74
2021/09/28 00:54:37;;;;;;;12.47;5.30;;;;;;;;;;5066779;28;20240;-75
2021/09/28 00:57:05;;;;;;;10.17;4.40;;;;;;;;;;5066738;28;20701;-75
2021/09/28 00:59:34;;;;;;;10.10;4.70;;;;;;;;;;5067392;28;20241;-75
2021/09/28 01:02:00;;;;;;;10.50;4.87;;;;;;;;;;5067040;28;20664;-74
2021/09/28 01:04:27;;;;;;;11.47;5.00;;;;;;;;;;5067372;28;20225;-75
2021/09/28 01:06:53;;;;;;;14.87;4.80;;;;;;;;;;5066309;28;20209;-75
2021/09/28 01:09:20;;;;;;;8.97;4.87;;;;;;;;;;5067218;28;20221;-75
2021/09/28 01:11:47;;;;;;;10.47;3.93;;;;;;;;;;5066945;28;20212;-75
2021/09/28 01:14:15;;;;;;;11.10;4.87;;;;;;;;;;5066842;28;20225;-75
2021/09/28 01:16:41;;;;;;;12.87;4.50;;;;;;;;;;5066311;28;20637;-75
2021/09/28 01:19:07;;;;;;;13.17;4.83;;;;;;;;;;5066849;28;20223;-75
2021/09/28 01:21:36;;;;;;;12.90;4.97;;;;;;;;;;5068951;28;20683;-75
2021/09/28 01:24:03;;;;;;;9.80;4.83;;;;;;;;;;5070096;28;20232;-75
2021/09/28 01:26:30;;;;;;;7.17;4.50;;;;;;;;;;5070184;28;20273;-75
2021/09/28 01:28:57;;;;;;;10.83;4.50;;;;;;;;;;5070255;28;20233;-75
2021/09/28 01:31:24;;;;;;;10.70;4.60;;;;;;;;;;5070386;28;20276;-75
2021/09/28 01:33:51;;;;;;;9.73;4.80;;;;;;;;;;5070247;28;20213;-75
2021/09/28 01:36:18;;;;;;;13.97;5.03;;;;;;;;;;5070354;28;20213;-75
2021/09/28 01:38:46;;;;;;;13.93;4.77;;;;;;;;;;5070283;28;20299;-75
2021/09/28 01:41:14;;;;;;;9.90;4.80;;;;;;;;;;5070173;28;20234;-75
2021/09/28 01:43:41;;;;;;;12.77;4.93;;;;;;;;;;5069934;28;20228;-75
2021/09/28 01:46:08;;;;;;;20.67;5.43;;;;;;;;;;5070064;28;20291;-74
2021/09/28 01:48:37;;;;;;;11.87;5.00;;;;;;;;;;5070127;28;20221;-75
2021/09/28 01:51:04;;;;;;;11.67;5.13;;;;;;;;;;5069761;28;20209;-76
2021/09/28 01:53:30;;;;;;;16.87;5.67;;;;;;;;;;5069522;28;20245;-76
2021/09/28 01:55:58;;;;;;;13.70;4.90;;;;;;;;;;5069861;28;20222;-75
2021/09/28 01:58:25;;;;;;;13.27;4.87;;;;;;;;;;5069707;28;20283;-75
2021/09/28 02:00:52;;;;;;;12.97;5.07;;;;;;;;;;5069165;28;20240;-75
2021/09/28 02:03:18;;;;;;;12.63;4.60;;;;;;;;;;5069788;28;20857;-75
2021/09/28 02:05:45;;;;;;;15.10;5.00;;;;;;;;;;5070160;28;20211;-75
2021/09/28 02:08:11;;;;;;;15.17;4.80;;;;;;;;;;5069341;28;20216;-75
2021/09/28 02:10:38;;;;;;;15.80;5.33;;;;;;;;;;5069419;28;20263;-75
2021/09/28 02:13:06;;;;;;;16.63;6.37;;;;;;;;;;5069490;28;20652;-75
2021/09/28 02:15:33;;;;;;;12.97;4.90;;;;;;;;;;5069663;28;20650;-75
2021/09/28 02:18:00;;;;;;;10.20;4.40;;;;;;;;;;5069292;28;20254;-75
2021/09/28 02:20:26;;;;;;;12.57;4.67;;;;;;;;;;5069777;28;20217;-74
2021/09/28 02:22:53;;;;;;;16.37;6.57;;;;;;;;;;5069392;28;20675;-74
2021/09/28 02:25:21;;;;;;;9.83;4.63;;;;;;;;;;5069662;28;20271;-75
2021/09/28 02:27:47;;;;;;;9.83;4.80;;;;;;;;;;5069180;28;20233;-75
2021/09/28 02:30:16;;;;;;;14.43;4.73;;;;;;;;;;5069625;28;20213;-75
2021/09/28 02:32:42;;;;;;;13.13;4.57;;;;;;;;;;5068628;28;20270;-75
2021/09/28 02:35:09;;;;;;;16.73;5.90;;;;;;;;;;5069248;28;20217;-75
2021/09/28 02:37:35;;;;;;;17.20;5.80;;;;;;;;;;5069074;28;20273;-75
2021/09/28 02:40:03;;;;;;;12.70;5.23;;;;;;;;;;5068950;28;20777;-75
2021/09/28 02:42:29;;;;;;;14.00;5.10;;;;;;;;;;5069020;28;20241;-75
2021/09/28 02:44:56;;;;;;;12.53;5.80;;;;;;;;;;5068902;28;20213;-75
2021/09/28 02:47:24;;;;;;;12.43;5.00;;;;;;;;;;5068922;28;20212;-75
2021/09/28 02:49:51;;;;;;;12.13;5.10;;;;;;;;;;5068544;28;20215;-75
2021/09/28 02:52:17;;;;;;;10.70;4.87;;;;;;;;;;5068891;28;20213;-75
2021/09/28 02:54:43;;;;;;;11.57;5.10;;;;;;;;;;5067699;28;20718;-75
2021/09/28 02:57:10;;;;;;;14.53;5.80;;;;;;;;;;5068261;28;20217;-75
2021/09/28 02:59:37;;;;;;;13.80;4.97;;;;;;;;;;5068441;28;21153;-75
2021/09/28 03:02:04;;;;;;;13.67;5.40;;;;;;;;;;5068289;28;20240;-75
2021/09/28 03:04:32;;;;;;;16.17;5.63;;;;;;;;;;5068341;28;20229;-75
2021/09/28 03:06:58;;;;;;;14.83;5.13;;;;;;;;;;5067658;28;20222;-75
2021/09/28 03:09:24;;;;;;;16.10;6.17;;;;;;;;;;5069161;28;20217;-74
2021/09/28 03:11:51;;;;;;;14.30;5.27;;;;;;;;;;5067990;28;20216;-75
2021/09/28 03:14:17;;;;;;;13.17;6.37;;;;;;;;;;5068259;28;20233;-75
2021/09/28 03:16:44;;;;;;;12.20;5.70;;;;;;;;;;5067647;28;20233;-75
2021/09/28 03:19:10;;;;;;;15.03;5.47;;;;;;;;;;5068067;28;20225;-75
2021/09/28 03:21:38;;;;;;;14.20;6.13;;;;;;;;;;5068292;28;20298;-75
2021/09/28 03:24:05;;;;;;;12.33;6.13;;;;;;;;;;5067918;28;20211;-75
2021/09/28 03:26:32;;;;;;;16.57;6.33;;;;;;;;;;5068149;28;20568;-75
2021/09/28 03:28:58;;;;;;;18.40;7.07;;;;;;;;;;5067802;28;20229;-75
2021/09/28 03:31:25;;;;;;;12.13;6.03;;;;;;;;;;5068331;28;20210;-75
2021/09/28 03:33:51;;;;;;;20.40;7.23;;;;;;;;;;5067554;28;20221;-74
2021/09/28 03:36:17;;;;;;;16.20;8.20;;;;;;;;;;5068102;28;20224;-75
2021/09/28 03:38:45;;;;;;;15.13;7.33;;;;;;;;;;5067977;28;20220;-75
2021/09/28 03:41:12;;;;;;;19.53;7.73;;;;;;;;;;5067717;28;20217;-74
2021/09/28 03:43:38;;;;;;;20.10;7.90;;;;;;;;;;5067731;28;20236;-74
2021/09/28 03:46:05;;;;;;;23.83;7.87;;;;;;;;;;5068058;28;20263;-75
2021/09/28 03:48:31;;;;;;;15.97;7.07;;;;;;;;;;5067891;28;20281;-75
2021/09/28 03:50:59;;;;;;;14.83;7.33;;;;;;;;;;5067543;28;20258;-75
2021/09/28 03:53:25;;;;;;;20.77;8.17;;;;;;;;;;5067657;28;20321;-75
2021/09/28 03:55:54;;;;;;;15.40;8.20;;;;;;;;;;5067213;28;20278;-75
2021/09/28 03:58:20;;;;;;;20.83;8.90;;;;;;;;;;5067911;28;20229;-75
2021/09/28 04:00:46;;;;;;;18.90;8.17;;;;;;;;;;5067266;28;20220;-75
2021/09/28 04:03:13;;;;;;;17.77;8.20;;;;;;;;;;5067204;28;20232;-75
2021/09/28 04:05:39;;;;;;;21.33;9.03;;;;;;;;;;5067188;28;20221;-75
2021/09/28 04:08:07;;;;;;;18.80;9.80;;;;;;;;;;5066950;28;20608;-75
2021/09/28 04:10:35;;;;;;;14.63;8.30;;;;;;;;;;5067760;28;20222;-74
2021/09/28 04:13:03;;;;;;;20.80;9.27;;;;;;;;;;5067151;28;20257;-75
2021/09/28 04:15:37;;;;;;;15.30;8.70;;;;;;;;;;5067572;28;20228;-74
2021/09/28 04:18:04;;;;;;;22.07;9.20;;;;;;;;;;5067433;28;20351;-74
2021/09/28 04:20:32;;;;;;;19.40;9.57;;;;;;;;;;5067789;28;20270;-74
2021/09/28 04:22:59;;;;;;;18.20;8.97;;;;;;;;;;5066844;28;20236;-74
2021/09/28 04:25:26;;;;;;;21.67;8.97;;;;;;;;;;5067581;28;20222;-74
2021/09/28 04:27:52;;;;;;;23.77;10.10;;;;;;;;;;5066931;28;20228;-74
2021/09/28 04:30:20;;;;;;;20.30;9.07;;;;;;;;;;5067418;28;20259;-73
2021/09/28 04:32:46;;;;;;;21.23;9.53;;;;;;;;;;5066812;28;20603;-73
2021/09/28 04:35:13;;;;;;;14.10;8.87;;;;;;;;;;5067033;28;20220;-73
2021/09/28 04:37:39;;;;;;;19.73;9.30;;;;;;;;;;5067617;28;20295;-73
2021/09/28 04:40:07;;;;;;;23.83;10.30;;;;;;;;;;5066885;28;20212;-73
2021/09/28 04:42:33;;;;;;;20.57;9.93;;;;;;;;;;5067148;28;20231;-73
2021/09/28 04:45:00;;;;;;;25.57;10.47;;;;;;;;;;5066637;28;20220;-73
2021/09/28 04:47:27;;;;;;;17.17;9.70;;;;;;;;;;5067150;28;20629;-73
2021/09/28 04:49:54;;;;;;;22.23;10.93;;;;;;;;;;5066919;28;20213;-73
2021/09/28 04:52:20;;;;;;;19.17;10.30;;;;;;;;;;5067440;28;20210;-73
2021/09/28 04:54:47;;;;;;;26.83;10.33;;;;;;;;;;5066261;28;20252;-73
2021/09/28 04:57:13;;;;;;;17.40;10.67;;;;;;;;;;5070238;28;20747;-73
2021/09/28 04:59:40;;;;;;;20.60;10.03;;;;;;;;;;5070428;28;20286;-73
2021/09/28 05:02:06;;;;;;;22.20;12.03;;;;;;;;;;5070864;28;20235;-73
2021/09/28 05:04:34;;;;;;;19.60;11.03;;;;;;;;;;5069915;28;20204;-73
2021/09/28 05:07:01;;;;;;;22.17;12.07;;;;;;;;;;5069848;28;20213;-73
2021/09/28 05:09:30;;;;;;;23.73;12.30;;;;;;;;;;5070806;28;20221;-73
2021/09/28 05:11:56;;;;;;;23.67;11.13;;;;;;;;;;5070223;28;20319;-73
2021/09/28 05:14:23;;;;;;;21.93;10.77;;;;;;;;;;5070178;28;20301;-73
2021/09/28 05:16:49;;;;;;;21.00;11.97;;;;;;;;;;5069996;28;20252;-73
2021/09/28 05:19:16;;;;;;;18.33;12.30;;;;;;;;;;5070280;28;20620;-73
2021/09/28 05:21:44;;;;;;;19.37;11.70;;;;;;;;;;5069925;28;20645;-73
2021/09/28 05:24:10;;;;;;;25.70;11.63;;;;;;;;;;5069203;28;20216;-73
2021/09/28 05:26:37;;;;;;;24.30;12.13;;;;;;;;;;5069820;28;20716;-73
2021/09/28 05:29:04;;;;;;;22.47;12.10;;;;;;;;;;5068520;28;20733;-73
2021/09/28 05:31:30;;;;;;;19.37;11.70;;;;;;;;;;5068622;28;20271;-73
2021/09/28 05:33:58;;;;;;;23.60;12.73;;;;;;;;;;5069255;28;20224;-73
2021/09/28 05:36:24;;;;;;;19.50;11.93;;;;;;;;;;5070126;28;20220;-73
2021/09/28 05:38:52;;;;;;;21.80;11.63;;;;;;;;;;5068508;28;20599;-73
2021/09/28 05:41:18;;;;;;;20.10;12.17;;;;;;;;;;5069385;28;20283;-73
2021/09/28 05:43:45;;;;;;;21.37;11.60;;;;;;;;;;5068631;28;20558;-73
2021/09/28 05:46:11;;;;;;;20.80;12.03;;;;;;;;;;5068839;28;20325;-73
2021/09/28 05:48:37;;;;;;;22.03;12.87;;;;;;;;;;5068756;28;20209;-73
2021/09/28 05:51:14;;;;;;;22.57;13.30;;;;;;;;;;5067709;28;20281;-73
2021/09/28 05:53:40;;;;;;;24.97;12.83;;;;;;;;;;5068350;28;20347;-73
2021/09/28 05:56:08;;;;;;;18.50;12.33;;;;;;;;;;5067779;28;20362;-73
2021/09/28 05:58:35;;;;;;;22.93;11.73;;;;;;;;;;5068978;28;20637;-73
2021/09/28 06:01:01;;;;;;;22.30;12.27;;;;;;;;;;5067086;28;20207;-73
2021/09/28 06:03:28;;;;;;;26.57;12.83;;;;;;;;;;5069246;28;20237;-73
2021/09/28 06:05:54;;;;;;;19.93;11.20;;;;;;;;;;5068451;28;21132;-73
2021/09/28 06:08:20;;;;;;;21.73;11.87;;;;;;;;;;5066042;28;20217;-73
2021/09/28 06:10:47;;;;;;;23.43;11.07;;;;;;;;;;5066660;28;20282;-73
2021/09/28 06:13:16;;;;;;;20.30;11.50;;;;;;;;;;5067559;28;20256;-73
2021/09/28 06:15:42;;;;;;;24.37;11.53;;;;;;;;;;5067283;28;20314;-73
2021/09/28 06:18:08;;;;;;;23.03;11.03;;;;;;;;;;5053494;28;20294;-73
2021/09/28 06:20:35;;;;;;;20.30;11.57;;;;;;;;;;5067549;28;20263;-73
2021/09/28 06:23:01;;;;;;;21.90;10.40;;;;;;;;;;5067188;28;20235;-73
2021/09/28 06:25:28;;;;;;;20.97;10.97;;;;;;;;;;5066986;28;20693;-73
2021/09/28 06:27:54;;;;;;;25.17;10.43;;;;;;;;;;5067080;28;20590;-73
2021/09/28 06:30:22;;;;;;;20.30;9.90;;;;;;;;;;5066711;28;20228;-73
2021/09/28 06:32:49;;;;;;;21.93;10.60;;;;;;;;;;5066855;28;20365;-73
2021/09/28 06:35:17;;;;;;;17.77;9.90;;;;;;;;;;5066004;28;20342;-73
2021/09/28 06:37:43;;;;;;;18.70;9.30;;;;;;;;;;5066693;28;20212;-73
2021/09/28 06:40:11;;;;;;;18.27;8.97;;;;;;;;;;5065892;28;20240;-73
2021/09/28 06:42:37;;;;;;;15.77;9.03;;;;;;;;;;5066989;28;20240;-73
2021/09/28 06:45:04;;;;;;;14.33;8.70;;;;;;;;;;5066412;28;20267;-73
2021/09/28 06:47:32;;;;;;;17.20;8.47;;;;;;;;;;5066666;28;20279;-73
2021/09/28 06:49:58;;;;;;;13.37;8.20;;;;;;;;;;5066113;28;20683;-73
2021/09/28 06:52:25;;;;;;;14.37;7.77;;;;;;;;;;5066553;28;20217;-73
2021/09/28 06:54:51;;;;;;;14.47;7.03;;;;;;;;;;5065827;28;20295;-73
2021/09/28 06:57:18;;;;;;;14.43;7.70;;;;;;;;;;5065791;28;20209;-73
2021/09/28 06:59:44;;;;;;;17.43;8.33;;;;;;;;;;5065098;28;20201;-73
2021/09/28 07:02:11;;;;;;;14.83;6.90;;;;;;;;;;5067592;28;20222;-73
2021/09/28 07:04:38;;;;;;;13.90;7.27;;;;;;;;;;5066730;28;20221;-73
2021/09/28 07:07:05;;;;;;;16.83;7.17;;;;;;;;;;5065720;28;20274;-73
2021/09/28 07:09:33;;;;;;;14.90;6.93;;;;;;;;;;5065113;28;20209;-73
2021/09/28 07:12:00;;;;;;;13.20;6.23;;;;;;;;;;5066421;28;20237;-73
2021/09/28 07:14:26;;;;;;;20.20;7.50;;;;;;;;;;5066341;28;20213;-73
2021/09/28 07:16:53;;;;;;;14.63;7.00;;;;;;;;;;5065468;28;20621;-73
2021/09/28 07:19:19;;;;;;;15.53;7.30;;;;;;;;;;5065400;28;20214;-72
2021/09/28 07:21:47;;;;;;;15.57;6.97;;;;;;;;;;5065834;28;20898;-72
2021/09/28 07:24:13;;;;;;;11.20;6.63;;;;;;;;;;5065321;28;20233;-72
2021/09/28 07:26:40;;;;;;;13.37;6.60;;;;;;;;;;5065542;28;20234;-73
2021/09/28 07:29:06;;;;;;;12.00;6.30;;;;;;;;;;5065857;28;20221;-72
2021/09/28 07:31:33;;;;;;;13.47;6.50;;;;;;;;;;5065993;28;20218;-72
2021/09/28 07:33:59;;;;;;;11.83;7.23;;;;;;;;;;5066048;28;20206;-74
2021/09/28 07:36:25;;;;;;;10.10;6.77;;;;;;;;;;5066131;28;20267;-75
2021/09/28 07:38:53;;;;;;;13.33;6.93;;;;;;;;;;5065266;28;20261;-73
2021/09/28 07:41:20;;;;;;;11.83;5.97;;;;;;;;;;5065625;28;20890;-75
2021/09/28 07:43:47;;;;;;;14.17;6.47;;;;;;;;;;5065905;28;20233;-72
2021/09/28 07:46:13;;;;;;;14.03;6.93;;;;;;;;;;5065614;28;20617;-72
2021/09/28 07:48:40;;;;;;;12.33;6.17;;;;;;;;;;5066124;28;20562;-72
2021/09/28 07:51:06;;;;;;;13.30;5.80;;;;;;;;;;5065825;28;20206;-72
2021/09/28 07:53:33;;;;;;;12.70;5.90;;;;;;;;;;5065219;28;20649;-72
2021/09/28 07:56:02;;;;;;;16.27;5.90;;;;;;;;;;5065700;28;20238;-74
2021/09/28 07:58:29;;;;;;;15.13;5.63;;;;;;;;;;5065633;28;20210;-72
2021/09/28 08:00:56;;;;;;;11.17;5.60;;;;;;;;;;5065331;28;20213;-73
2021/09/28 08:03:23;;;;;;;11.30;5.80;;;;;;;;;;5065022;28;21124;-72
2021/09/28 08:05:50;;;;;;;9.63;5.53;;;;;;;;;;5065770;28;20224;-74
2021/09/28 08:08:16;;;;;;;13.63;5.50;;;;;;;;;;5065472;28;20220;-72
2021/09/28 08:10:43;;;;;;;15.20;5.70;;;;;;;;;;5066036;28;20244;-74
2021/09/28 08:13:11;;;;;;;14.63;6.27;;;;;;;;;;5065216;28;20217;-74
2021/09/28 08:15:38;;;;;;;12.13;5.50;;;;;;;;;;5065891;28;20206;-73
2021/09/28 08:18:05;;;;;;;15.43;5.63;;;;;;;;;;5065269;28;20229;-73
2021/09/28 08:20:31;;;;;;;15.10;6.13;;;;;;;;;;5065051;28;20275;-73
2021/09/28 08:22:59;;;;;;;16.70;6.03;;;;;;;;;;5065570;28;20233;-73
2021/09/28 08:25:35;;;;;;;14.10;5.70;;;;;;;;;;5064626;28;20315;-73
2021/09/28 08:30:47;;;;;;;14.23;5.73;;;;;;;;;;5064185;28;20767;-74
2021/09/28 08:33:14;;;;;;;13.27;5.83;;;;;;;;;;5064553;28;20198;-72
2021/09/28 08:35:40;;;;;;;13.27;5.60;;;;;;;;;;5065225;28;20217;-74
2021/09/28 08:38:06;;;;;;;11.27;5.13;;;;;;;;;;5064512;28;20210;-73
2021/09/28 08:40:33;;;;;;;17.53;5.37;;;;;;;;;;5065514;28;20234;-74
2021/09/28 08:42:59;;;;;;;13.33;5.20;;;;;;;;;;5064668;28;20695;-72
2021/09/28 08:45:26;;;;;;;12.57;4.90;;;;;;;;;;5065311;28;20225;-72
2021/09/28 08:47:54;;;;;;;10.30;5.03;;;;;;;;;;5064825;28;20210;-74
2021/09/28 08:50:22;;;;;;;11.93;5.00;;;;;;;;;;5064764;28;20221;-75
2021/09/28 08:52:50;;;;;;;12.40;5.03;;;;;;;;;;5064545;28;20291;-74
2021/09/28 08:55:17;;;;;;;13.77;4.93;;;;;;;;;;5064234;28;20292;-74
2021/09/28 08:57:44;;;;;;;12.27;4.97;;;;;;;;;;5065358;28;20217;-74
2021/09/28 09:00:25;;;;;;;16.47;4.67;;;;;;;;;;5064626;28;20229;-74
2021/09/28 09:02:55;;;;;;;13.00;5.27;;;;;;;;;;5064857;28;20640;-74
2021/09/28 09:05:22;;;;;;;12.13;4.50;;;;;;;;;;5064702;28;20243;-74
2021/09/28 09:07:58;;;;;;;11.13;3.83;;;;;;;;;;5065341;28;20723;-74
2021/09/28 09:10:30;;;;;;;8.73;4.20;;;;;;;;;;5064675;28;20223;-74
2021/09/28 09:12:56;;;;;;;11.47;4.43;;;;;;;;;;5065004;28;20241;-74
2021/09/28 09:15:27;;;;;;;12.43;4.30;;;;;;;;;;5063814;28;20208;-74
2021/09/28 09:17:56;;;;;;;9.23;4.47;;;;;;;;;;5064919;28;20227;-74
2021/09/28 09:20:28;;;;;;;9.97;3.73;;;;;;;;;;5064914;28;20779;-74
2021/09/28 09:22:55;;;;;;;10.97;4.20;;;;;;;;;;5065163;28;21077;-74
2021/09/28 09:25:24;;;;;;;11.47;3.90;;;;;;;;;;5064984;28;20852;-74
2021/09/28 09:27:52;;;;;;;9.90;3.77;;;;;;;;;;5065062;28;20227;-74
2021/09/28 09:30:23;;;;;;;11.90;4.30;;;;;;;;;;5064463;28;20214;-74
2021/09/28 09:32:53;;;;;;;13.43;4.20;;;;;;;;;;5064445;28;20300;-75
2021/09/28 09:35:26;;;;;;;9.80;3.70;;;;;;;;;;5063671;28;20304;-72
2021/09/28 09:38:03;;;;;;;11.83;4.43;;;;;;;;;;5064416;28;20263;-75
2021/09/28 09:40:32;;;;;;;12.67;4.30;;;;;;;;;;5064235;28;20227;-75
2021/09/28 09:42:58;;;;;;;12.73;4.00;;;;;;;;;;5067514;28;20213;-75
2021/09/28 09:45:26;;;;;;;11.03;3.97;;;;;;;;;;5067415;28;20199;-74
2021/09/28 09:47:53;;;;;;;13.23;3.80;;;;;;;;;;5067676;28;20205;-75
2021/09/28 09:50:26;;;;;;;10.50;4.37;;;;;;;;;;5067589;28;20561;-75
2021/09/28 09:53:07;;;;;;;10.27;3.40;;;;;;;;;;5068389;28;20217;-75
2021/09/28 09:55:40;;;;;;;10.87;3.83;;;;;;;;;;5048717;28;20275;-75
2021/09/28 09:58:08;;;;;;;12.20;3.73;;;;;;;;;;5048287;28;20262;-75
2021/09/28 10:00:36;;;;;;;8.83;3.90;;;;;;;;;;5048584;28;20604;-75
2021/09/28 10:03:04;;;;;;;11.03;3.57;;;;;;;;;;5047974;28;20339;-75
2021/09/28 10:05:33;;;;;;;9.73;3.27;;;;;;;;;;5047784;28;20253;-75
2021/09/28 10:08:03;;;;;;;9.83;3.60;;;;;;;;;;5048116;28;20652;-75
2021/09/28 10:10:30;;;;;;;8.50;2.93;;;;;;;;;;5047536;28;20572;-75
2021/09/28 10:12:56;;;;;;;7.57;3.30;;;;;;;;;;5047955;28;20218;-75
2021/09/28 10:15:23;;;;;;;9.60;3.93;;;;;;;;;;5047046;28;20738;-72
2021/09/28 10:17:49;;;;;;;10.30;3.87;;;;;;;;;;5047416;28;20279;-75
2021/09/28 10:20:28;;;;;;;13.40;3.43;;;;;;;;;;5047255;28;20213;-74
2021/09/28 10:22:57;;;;;;;9.57;3.37;;;;;;;;;;5048051;28;20263;-75
2021/09/28 10:25:45;;;;;;;11.07;3.53;;;;;;;;;;5046836;28;20241;-74
2021/09/28 10:28:39;;;;;;;14.97;3.20;;;;;;;;;;5046729;28;20303;-74
2021/09/28 10:31:11;;;;;;;10.47;3.57;;;;;;;;;;5047306;28;20312;-75
2021/09/28 10:33:39;;;;;;;11.00;3.37;;;;;;;;;;5047767;28;21210;-74
2021/09/28 10:36:11;;;;;;;14.40;3.23;;;;;;;;;;5047700;28;20280;-75
2021/09/28 10:38:53;;;;;;;5.97;2.90;;;;;;;;;;5047764;28;20207;-72
2021/09/28 10:41:52;;;;;;;17.23;3.17;;;;;;;;;;5046442;28;20248;-75
2021/09/28 10:44:44;;;;;;;11.13;2.83;;;;;;;;;;5047871;28;20222;-75
2021/09/28 10:47:44;;;;;;;8.00;2.53;;;;;;;;;;5047067;28;20215;-75
2021/09/28 10:50:29;;;;;;;10.70;2.80;;;;;;;;;;5047217;28;20308;-74
2021/09/28 10:52:58;;;;;;;14.83;3.50;;;;;;;;;;5046705;28;20283;-75
2021/09/28 10:55:39;;;;;;;9.67;2.40;;;;;;;;;;5065740;28;20249;-75
2021/09/28 10:58:12;;;;;;;9.33;2.67;;;;;;;;;;5066838;28;20330;-75
2021/09/28 11:01:08;;;;;;;11.23;3.33;;;;;;;;;;5067004;28;20314;-75
2021/09/28 11:04:03;;;;;;;9.20;2.80;;;;;;;;;;5067525;28;20283;-75
2021/09/28 11:06:56;;;;;;;12.00;3.27;;;;;;;;;;5052788;28;20661;-75
2021/09/28 11:09:25;;;;;;;26.07;4.47;;;;;;;;;;5067461;28;20475;-75
2021/09/28 11:11:55;;;;;;;10.17;2.60;;;;;;;;;;5067587;28;20314;-75
2021/09/28 11:14:23;;;;;;;13.67;2.60;;;;;;;;;;5066561;28;20765;-74
2021/09/28 11:16:56;;;;;;;22.27;3.80;;;;;;;;;;5065406;28;20279;-73
2021/09/28 11:19:23;;;;;;;12.00;2.87;;;;;;;;;;5065733;28;21156;-74
2021/09/28 11:21:50;;;;;;;12.87;2.93;;;;;;;;;;5066223;28;20232;-74
2021/09/28 11:24:21;;;;;;;9.97;2.60;;;;;;;;;;5065653;28;20243;-76
2021/09/28 11:26:49;;;;;;;13.03;2.67;;;;;;;;;;5066203;28;20232;-76
2021/09/28 11:29:21;;;;;;;21.77;4.50;;;;;;;;;;5065412;28;20216;-77
2021/09/28 11:31:48;;;;;;;7.67;2.20;;;;;;;;;;5065827;28;20212;-75
2021/09/28 11:34:14;;;;;;;10.88;2.80;;;;;;;;;;5064404;28;20554;-75
2021/09/28 11:36:42;;;;;;;17.93;4.13;;;;;;;;;;5065857;28;20217;-76
2021/09/28 11:39:15;;;;;;;8.33;2.50;;;;;;;;;;5065389;28;20278;-76
2021/09/28 11:41:42;;;;;;;7.60;2.20;;;;;;;;;;5065647;28;20696;-77
2021/09/28 11:44:10;;;;;;;7.77;2.00;;;;;;;;;;5065218;28;20328;-78
2021/09/28 11:46:37;;;;;;;12.27;2.70;;;;;;;;;;5066446;28;20241;-76
2021/09/28 11:49:07;;;;;;;8.27;1.87;;;;;;;;;;5065642;28;20214;-74
2021/09/28 11:51:35;;;;;;;9.00;2.40;;;;;;;;;;5065773;28;21035;-76
2021/09/28 11:54:04;;;;;;;12.03;3.00;;;;;;;;;;5064810;28;20241;-75
2021/09/28 11:56:33;;;;;;;8.67;2.33;;;;;;;;;;5064571;28;20226;-75
2021/09/28 11:59:00;;;;;;;10.20;1.67;;;;;;;;;;5065708;28;20209;-75
2021/09/28 12:01:27;;;;;;;10.13;2.23;;;;;;;;;;5064920;28;20227;-75
2021/09/28 12:04:21;;;;;;;10.60;2.57;;;;;;;;;;5065005;28;20282;-73
2021/09/28 12:07:01;;;;;;;9.67;2.70;;;;;;;;;;5065285;28;20218;-75
2021/09/28 12:09:28;;;;;;;13.57;2.57;;;;;;;;;;5065180;28;20291;-74
2021/09/28 12:11:59;;;;;;;9.20;2.47;;;;;;;;;;5065281;28;20225;-73
2021/09/28 12:14:34;;;;;;;13.40;2.93;;;;;;;;;;5064751;28;20218;-74
2021/09/28 12:17:11;;;;;;;6.73;2.40;;;;;;;;;;5064471;28;20256;-75
2021/09/28 12:19:42;;;;;;;10.43;2.47;;;;;;;;;;5064379;28;20288;-75
2021/09/28 12:22:09;;;;;;;8.37;2.37;;;;;;;;;;5063972;28;20275;-75
2021/09/28 12:24:44;;;;;;;10.63;2.63;;;;;;;;;;5064849;28;20257;-75
2021/09/28 12:27:11;;;;;;;9.13;3.30;;;;;;;;;;5063201;28;20243;-75
2021/09/28 12:29:41;;;;;;;7.93;2.40;;;;;;;;;;5064175;28;20220;-75
2021/09/28 12:32:08;;;;;;;13.07;2.97;;;;;;;;;;5063981;28;20212;-76
2021/09/28 12:34:50;;;;;;;7.63;2.40;;;;;;;;;;5064969;28;20268;-75
2021/09/28 12:37:16;;;;;;;9.30;2.10;;;;;;;;;;5065201;28;20307;-75
2021/09/28 12:40:06;;;;;;;11.10;2.30;;;;;;;;;;5065099;28;20377;-75
2021/09/28 12:42:33;;;;;;;15.50;2.13;;;;;;;;;;5062479;28;20201;-75
2021/09/28 12:45:01;;;;;;;8.23;2.27;;;;;;;;;;5063604;28;20232;-75
2021/09/28 12:47:34;;;;;;;11.47;2.00;;;;;;;;;;5064520;28;20259;-76
2021/09/28 12:50:24;;;;;;;7.73;2.10;;;;;;;;;;5065031;28;20193;-75
2021/09/28 12:52:53;;;;;;;9.77;2.27;;;;;;;;;;5064764;28;20283;-75
2021/09/28 12:55:20;;;;;;;8.93;2.27;;;;;;;;;;5064858;28;20244;-76
2021/09/28 12:57:46;;;;;;;18.33;2.83;;;;;;;;;;5065677;28;20217;-75
2021/09/28 13:00:13;;;;;;;9.13;2.50;;;;;;;;;;5064526;28;20213;-75
2021/09/28 13:02:40;;;;;;;11.23;2.10;;;;;;;;;;5065415;28;20208;-75
2021/09/28 13:05:10;;;;;;;6.63;1.93;;;;;;;;;;5064638;28;20241;-75
2021/09/28 13:07:39;;;;;;;10.60;2.00;;;;;;;;;;5065011;28;20206;-75
2021/09/28 13:10:06;;;;;;;7.73;2.00;;;;;;;;;;5064870;28;20244;-75
2021/09/28 13:12:32;;;;;;;11.30;2.27;;;;;;;;;;5066025;28;20304;-75
2021/09/28 13:14:59;;;;;;;5.97;2.60;;;;;;;;;;5064317;28;20267;-75
2021/09/28 13:17:26;;;;;;;10.70;2.03;;;;;;;;;;5065229;28;20290;-75
2021/09/28 13:19:52;;;;;;;11.13;2.50;;;;;;;;;;5067960;28;20209;-75
2021/09/28 13:22:18;;;;;;;10.23;2.83;;;;;;;;;;5068302;28;20218;-75
2021/09/28 13:24:46;;;;;;;7.43;1.87;;;;;;;;;;5068403;28;21130;-75
2021/09/28 13:27:13;;;;;;;9.73;2.50;;;;;;;;;;5067702;28;20231;-75
2021/09/28 13:29:39;;;;;;;7.37;2.27;;;;;;;;;;5068362;28;20618;-75
2021/09/28 13:32:06;;;;;;;6.30;1.90;;;;;;;;;;5068614;28;20753;-75
2021/09/28 13:34:32;;;;;;;15.27;2.60;;;;;;;;;;5068331;28;20751;-75
2021/09/28 13:36:59;;;;;;;7.27;2.03;;;;;;;;;;5068144;28;20214;-75
2021/09/28 13:39:25;;;;;;;8.90;1.93;;;;;;;;;;5068249;28;21351;-75
2021/09/28 13:41:53;;;;;;;7.33;1.77;;;;;;;;;;5068089;28;20703;-74
2021/09/28 13:44:19;;;;;;;5.53;2.00;;;;;;;;;;5067590;28;20247;-75
2021/09/28 13:46:48;;;;;;;10.20;1.80;;;;;;;;;;5068491;28;20640;-75
2021/09/28 13:49:14;;;;;;;10.07;3.27;;;;;;;;;;5067800;28;20744;-75
2021/09/28 13:51:40;;;;;;;8.30;2.60;;;;;;;;;;5067873;28;20314;-75
2021/09/28 13:54:07;;;;;;;9.80;2.10;;;;;;;;;;5067379;28;20309;-75
2021/09/28 13:56:34;;;;;;;6.47;1.57;;;;;;;;;;5068587;28;20557;-75
2021/09/28 13:59:01;;;;;;;14.63;2.63;;;;;;;;;;5066708;28;20209;-75
2021/09/28 14:01:28;;;;;;;6.30;2.27;;;;;;;;;;5067193;28;20228;-73
2021/09/28 14:03:54;;;;;;;7.70;1.87;;;;;;;;;;5066564;28;20236;-75
2021/09/28 14:06:21;;;;;;;7.40;1.80;;;;;;;;;;5064244;28;20220;-75
2021/09/28 14:08:48;;;;;;;7.03;1.93;;;;;;;;;;5068161;28;20212;-76
2021/09/28 14:11:15;;;;;;;7.40;1.90;;;;;;;;;;5066900;28;20233;-75
2021/09/28 14:13:43;;;;;;;7.50;1.97;;;;;;;;;;5067662;28;20216;-75
2021/09/28 14:16:11;;;;;;;10.80;2.17;;;;;;;;;;5066596;28;20213;-75
2021/09/28 14:18:37;;;;;;;9.67;2.17;;;;;;;;;;5067905;28;20233;-72
2021/09/28 14:21:05;;;;;;;7.27;1.80;;;;;;;;;;5066918;28;20721;-73
2021/09/28 14:23:32;;;;;;;6.03;2.10;;;;;;;;;;5067144;28;20202;-73
2021/09/28 14:25:58;;;;;;;8.55;2.05;;;;;;;;;;5066724;28;20458;-72
2021/09/28 14:28:25;;;;;;;10.57;2.23;;;;;;;;;;5065543;28;20252;-73
2021/09/28 14:30:51;;;;;;;5.60;1.53;;;;;;;;;;5066764;28;20624;-73
2021/09/28 14:33:20;;;;;;;7.50;2.07;;;;;;;;;;5066738;28;20210;-73
2021/09/28 14:35:47;;;;;;;10.10;2.40;;;;;;;;;;5066803;28;20232;-74
2021/09/28 14:38:13;;;;;;;10.83;2.60;;;;;;;;;;5066710;28;20213;-73
2021/09/28 14:40:39;;;;;;;8.77;2.27;;;;;;;;;;5067097;28;20319;-73